Terminal Aerodrome Forecast
Issued by NWS La Crosse, WI

Home | Current Version | Previous Version | Text Only | Print | Product List | Glossary On
Versions: 1 2 3 4 5 6 7 8 9 10 11 12 13 14 15 16 17 18 19
000
FTUS43 KARX 180520
TAFRST
TAF
KRST 180520Z 1806/1906 VRB04KT 6SM BR SKC
      TEMPO 1807/1811 3SM BR
     FM181400 11010KT P6SM BKN120
     FM190000 13013KT P6SM SCT120=

USA.gov is the U.S. government's official web portal to all federal, state and local government web resources and services.